createdAt,value
2022-11-15T00:01:48.887Z,4.30
2022-11-15T00:04:34.797Z,4.40
2022-11-15T00:07:48.378Z,4.60
2022-11-15T00:10:26.777Z,4.60
2022-11-15T00:13:13.922Z,4.70
2022-11-15T00:16:01.810Z,4.70
2022-11-15T00:18:50.658Z,4.90
2022-11-15T00:21:36.970Z,4.90
2022-11-15T00:24:22.964Z,5.00
2022-11-15T00:27:09.218Z,5.00
2022-11-15T00:29:55.142Z,5.20
2022-11-15T00:32:41.132Z,5.30
2022-11-15T00:35:28.013Z,5.40
2022-11-15T00:38:13.727Z,5.60
2022-11-15T00:41:00.587Z,5.90
2022-11-15T00:43:48.697Z,5.70
2022-11-15T00:46:34.600Z,5.70
2022-11-15T00:49:20.136Z,5.60
2022-11-15T00:52:05.937Z,5.40
2022-11-15T00:54:51.856Z,5.40
2022-11-15T00:57:37.476Z,5.40
2022-11-15T01:00:23.892Z,5.40
2022-11-15T01:03:10.093Z,5.40
2022-11-15T01:06:00.953Z,5.50
2022-11-15T01:08:47.164Z,5.50
2022-11-15T01:11:33.282Z,5.50
2022-11-15T01:14:24.193Z,5.60
2022-11-15T01:17:11.227Z,5.70
2022-11-15T01:19:57.116Z,5.50
2022-11-15T01:22:43.115Z,5.50
2022-11-15T01:25:28.933Z,5.60
2022-11-15T01:28:15.319Z,5.60
2022-11-15T01:31:03.375Z,5.50
2022-11-15T01:33:50.036Z,5.60
2022-11-15T01:36:35.614Z,5.60
2022-11-15T01:39:21.895Z,5.60
2022-11-15T01:42:13.137Z,5.60
2022-11-15T01:44:58.601Z,5.60
2022-11-15T01:47:48.375Z,5.60
2022-11-15T01:50:34.540Z,5.60
2022-11-15T01:53:24.475Z,5.60
2022-11-15T01:56:14.257Z,5.60
2022-11-15T01:59:03.823Z,5.60
2022-11-15T02:01:50.639Z,5.50
2022-11-15T02:04:41.738Z,5.50
2022-11-15T02:07:29.184Z,5.50
2022-11-15T02:10:21.288Z,5.40
2022-11-15T02:13:07.261Z,5.40
2022-11-15T02:16:06.181Z,5.30
2022-11-15T02:19:29.505Z,5.30
2022-11-15T02:22:38.283Z,5.20
2022-11-15T02:25:52.028Z,5.10
2022-11-15T02:29:19.457Z,5.10
2022-11-15T02:32:19.711Z,5.00
2022-11-15T02:35:28.716Z,4.90
2022-11-15T02:38:49.697Z,4.70
2022-11-15T02:41:55.344Z,4.60
2022-11-15T02:44:46.112Z,4.60
2022-11-15T02:47:38.731Z,4.60
2022-11-15T02:50:28.908Z,4.60
2022-11-15T02:53:15.942Z,4.50
2022-11-15T02:56:02.116Z,4.30
2022-11-15T02:59:20.566Z,4.10
2022-11-15T03:02:19.679Z,3.80
2022-11-15T03:05:18.216Z,3.80
2022-11-15T03:08:15.055Z,3.80
2022-11-15T03:11:09.379Z,4.00
2022-11-15T03:14:17.301Z,4.30
2022-11-15T03:17:17.486Z,4.40
2022-11-15T03:20:06.976Z,4.40
2022-11-15T03:22:56.155Z,4.40
2022-11-15T03:25:44.459Z,4.50
2022-11-15T03:28:37.960Z,4.50
2022-11-15T03:31:50.344Z,4.50
2022-11-15T03:34:50.168Z,4.50
2022-11-15T03:37:55.714Z,4.50
2022-11-15T03:40:46.104Z,4.30
2022-11-15T03:43:42.128Z,4.10
2022-11-15T03:46:53.529Z,3.90
2022-11-15T03:49:45.281Z,3.80
2022-11-15T03:52:34.893Z,3.90
2022-11-15T03:55:22.035Z,4.00
2022-11-15T03:58:08.069Z,4.00
2022-11-15T04:00:54.061Z,4.20
2022-11-15T04:03:40.244Z,4.50
2022-11-15T04:06:26.255Z,4.70
2022-11-15T04:09:12.088Z,4.90
2022-11-15T04:11:57.933Z,5.00
2022-11-15T04:15:04.165Z,5.10
2022-11-15T04:17:52.309Z,5.30
2022-11-15T04:20:56.907Z,5.40
2022-11-15T04:24:01.720Z,5.40
2022-11-15T04:26:47.913Z,5.40
2022-11-15T04:29:36.965Z,5.40
2022-11-15T04:32:22.742Z,5.50
2022-11-15T04:35:09.229Z,5.60
2022-11-15T04:37:56.388Z,5.60
2022-11-15T04:40:42.191Z,5.50
2022-11-15T04:43:29.106Z,5.50
2022-11-15T04:46:14.990Z,5.70
2022-11-15T04:49:00.556Z,5.70
2022-11-15T04:51:49.564Z,5.70
2022-11-15T04:54:35.090Z,5.60
2022-11-15T04:57:21.670Z,5.70
2022-11-15T05:00:10.533Z,5.80
2022-11-15T05:03:17.504Z,6.00
2022-11-15T05:06:03.764Z,6.10
2022-11-15T05:08:49.863Z,6.10
2022-11-15T05:11:35.647Z,6.00
2022-11-15T05:14:21.656Z,6.00
2022-11-15T05:17:07.551Z,6.00
2022-11-15T05:19:53.373Z,6.00
2022-11-15T05:22:39.925Z,6.00
2022-11-15T05:25:25.839Z,6.00
2022-11-15T05:28:11.611Z,6.10
2022-11-15T05:31:05.572Z,6.10
2022-11-15T05:33:53.091Z,6.20
2022-11-15T05:36:43.569Z,6.20
2022-11-15T05:39:29.641Z,6.20
2022-11-15T05:42:17.351Z,6.20
2022-11-15T05:45:06.645Z,6.20
2022-11-15T05:47:55.085Z,6.20
2022-11-15T05:50:46.587Z,6.20
2022-11-15T05:53:33.470Z,6.20
2022-11-15T05:56:19.696Z,6.20
2022-11-15T05:59:06.549Z,6.20
2022-11-15T06:01:52.380Z,6.20
2022-11-15T06:04:38.437Z,6.20
2022-11-15T06:07:24.249Z,6.20
2022-11-15T06:10:10.174Z,6.20
2022-11-15T06:13:04.310Z,6.30
2022-11-15T06:15:50.237Z,6.30
2022-11-15T06:18:36.727Z,6.30
2022-11-15T06:21:22.916Z,6.40
2022-11-15T06:24:08.738Z,6.40
2022-11-15T06:26:55.380Z,6.40
2022-11-15T06:29:41.667Z,6.40
2022-11-15T06:32:27.384Z,6.40
2022-11-15T06:35:14.700Z,6.40
2022-11-15T06:38:09.048Z,6.50
2022-11-15T06:40:54.966Z,6.50
2022-11-15T06:43:41.873Z,6.50
2022-11-15T06:46:28.279Z,6.50
2022-11-15T06:49:16.351Z,6.60
2022-11-15T06:52:02.103Z,6.60
2022-11-15T06:54:48.137Z,6.60
2022-11-15T06:57:33.948Z,6.70
2022-11-15T07:00:22.056Z,6.70
2022-11-15T07:03:08.337Z,6.70
2022-11-15T07:05:56.132Z,6.80
2022-11-15T07:08:42.627Z,6.80
2022-11-15T07:11:28.644Z,6.80
2022-11-15T07:14:14.544Z,6.90
2022-11-15T07:17:00.136Z,6.90
2022-11-15T07:19:46.032Z,6.90
2022-11-15T07:22:32.005Z,7.00
2022-11-15T07:25:18.365Z,7.00
2022-11-15T07:28:04.571Z,7.00
2022-11-15T07:30:50.660Z,7.10
2022-11-15T07:33:37.065Z,7.20
2022-11-15T07:36:23.201Z,7.30
2022-11-15T07:39:08.994Z,7.40
2022-11-15T07:42:15.073Z,7.40
2022-11-15T07:45:01.081Z,7.40
2022-11-15T07:47:47.921Z,7.50
2022-11-15T07:50:35.663Z,7.60
2022-11-15T07:53:21.835Z,7.60
2022-11-15T07:56:08.498Z,7.70
2022-11-15T07:58:55.001Z,7.80
2022-11-15T08:01:40.816Z,7.80
2022-11-15T08:04:26.979Z,8.00
2022-11-15T08:07:12.693Z,8.00
2022-11-15T08:09:59.476Z,8.10
2022-11-15T08:12:45.591Z,8.10
2022-11-15T08:15:32.944Z,8.20
2022-11-15T08:18:19.144Z,8.30
2022-11-15T08:21:05.515Z,8.40
2022-11-15T08:23:51.693Z,8.50
2022-11-15T08:26:37.537Z,8.60
2022-11-15T08:29:23.174Z,8.70
2022-11-15T08:32:09.789Z,8.80
2022-11-15T08:34:55.682Z,8.90
2022-11-15T08:37:42.395Z,9.10
2022-11-15T08:40:28.481Z,9.20
2022-11-15T08:43:14.351Z,9.30
2022-11-15T08:46:00.160Z,9.40
2022-11-15T08:48:46.263Z,9.40
2022-11-15T08:51:32.264Z,9.50
2022-11-15T08:54:17.944Z,9.50
2022-11-15T08:57:03.790Z,9.70
2022-11-15T08:59:49.987Z,9.80
2022-11-15T09:02:35.619Z,11.00
2022-11-15T09:05:21.178Z,12.00
2022-11-15T09:08:25.560Z,11.90
2022-11-15T09:11:13.405Z,11.70
2022-11-15T09:13:59.929Z,11.70
2022-11-15T09:16:45.822Z,11.90
2022-11-15T09:19:34.786Z,11.90
2022-11-15T09:22:21.065Z,11.80
2022-11-15T09:25:09.998Z,12.10
2022-11-15T09:27:57.947Z,13.00
2022-11-15T09:30:43.908Z,13.80
2022-11-15T09:33:29.865Z,13.70
2022-11-15T09:36:17.730Z,13.50
2022-11-15T09:39:03.778Z,13.20
2022-11-15T09:42:04.552Z,12.90
2022-11-15T09:44:59.886Z,12.70
2022-11-15T09:48:14.223Z,12.70
2022-11-15T09:51:03.979Z,12.70
2022-11-15T09:54:23.817Z,12.80
2022-11-15T09:56:30.654Z,12.80
2022-11-15T09:59:16.174Z,12.80
2022-11-15T10:02:09.226Z,12.70
2022-11-15T10:04:38.559Z,12.70
2022-11-15T10:07:21.720Z,12.70
2022-11-15T10:09:54.605Z,12.90
2022-11-15T10:12:21.781Z,13.00
2022-11-15T10:14:54.818Z,12.90
2022-11-15T10:17:52.124Z,13.00
2022-11-15T10:20:23.282Z,13.00
2022-11-15T10:22:53.552Z,13.10
2022-11-15T10:25:24.991Z,13.10
2022-11-15T10:27:56.690Z,13.10
2022-11-15T10:30:31.161Z,13.10
2022-11-15T10:32:58.403Z,13.10
2022-11-15T10:35:29.607Z,13.20
2022-11-15T10:38:08.353Z,13.40
2022-11-15T10:40:37.011Z,13.50
2022-11-15T10:43:10.418Z,13.70
2022-11-15T10:45:39.114Z,13.80
2022-11-15T10:48:15.501Z,13.90
2022-11-15T10:50:48.396Z,13.80
2022-11-15T10:53:31.610Z,13.80
2022-11-15T10:56:08.022Z,13.70
2022-11-15T10:58:42.331Z,13.50
2022-11-15T11:01:24.968Z,13.40
2022-11-15T11:04:06.760Z,13.40
2022-11-15T11:06:49.352Z,13.30
2022-11-15T11:09:39.164Z,13.30
2022-11-15T11:12:11.215Z,13.40
2022-11-15T11:14:40.198Z,13.70
2022-11-15T11:17:27.285Z,14.20
2022-11-15T11:20:04.483Z,14.60
2022-11-15T11:22:51.640Z,14.60
2022-11-15T11:25:39.237Z,14.30
2022-11-15T11:28:36.423Z,14.10
2022-11-15T11:31:19.102Z,14.00
2022-11-15T11:34:02.445Z,14.00
2022-11-15T11:36:48.457Z,13.90
2022-11-15T11:39:52.384Z,13.90
2022-11-15T11:42:38.709Z,14.00
2022-11-15T11:45:06.215Z,14.20
2022-11-15T11:47:52.063Z,14.60
2022-11-15T11:50:22.030Z,17.10
2022-11-15T11:53:09.216Z,18.60
2022-11-15T11:55:47.485Z,19.30
2022-11-15T11:58:24.052Z,20.20
2022-11-15T12:00:56.465Z,20.30
2022-11-15T12:04:07.472Z,20.20
2022-11-15T12:06:49.042Z,20.70
2022-11-15T12:09:43.419Z,21.30
2022-11-15T12:12:30.390Z,21.40
2022-11-15T12:15:13.672Z,21.60
2022-11-15T12:17:42.315Z,22.00
2022-11-15T12:20:20.446Z,22.20
2022-11-15T12:23:16.798Z,22.00
2022-11-15T12:25:55.894Z,21.70
2022-11-15T12:28:52.879Z,21.10
2022-11-15T12:31:32.705Z,21.00
2022-11-15T12:34:06.899Z,20.70
2022-11-15T12:36:41.421Z,20.90
2022-11-15T12:39:13.149Z,21.00
2022-11-15T12:41:42.724Z,20.80
2022-11-15T12:44:34.808Z,20.60
2022-11-15T12:47:23.339Z,20.20
2022-11-15T12:49:50.745Z,19.80
2022-11-15T12:52:18.674Z,19.70
2022-11-15T12:55:00.623Z,19.70
2022-11-15T12:57:31.800Z,19.60
2022-11-15T13:00:05.436Z,19.80
2022-11-15T13:02:36.721Z,19.90
2022-11-15T13:05:16.692Z,19.80
2022-11-15T13:07:43.808Z,19.40
2022-11-15T13:10:11.054Z,19.30
2022-11-15T13:12:47.512Z,19.10
2022-11-15T13:15:14.900Z,19.00
2022-11-15T13:17:47.023Z,19.00
2022-11-15T13:20:17.777Z,19.10
2022-11-15T13:23:14.496Z,19.30
2022-11-15T13:25:49.704Z,19.30
2022-11-15T13:28:17.591Z,19.40
2022-11-15T13:30:47.777Z,20.00
2022-11-15T13:33:22.370Z,20.00
2022-11-15T13:35:54.020Z,20.10
2022-11-15T13:38:30.935Z,20.00
2022-11-15T13:40:59.834Z,19.90
2022-11-15T13:43:31.867Z,20.00
2022-11-15T13:46:11.852Z,19.60
2022-11-15T13:48:41.313Z,19.10
2022-11-15T13:51:17.088Z,19.00
2022-11-15T13:53:50.713Z,18.70
2022-11-15T13:56:19.771Z,18.30
2022-11-15T13:58:47.556Z,18.20
2022-11-15T14:01:20.418Z,17.80
2022-11-15T14:03:55.306Z,17.70
2022-11-15T14:06:25.299Z,17.40
2022-11-15T14:09:03.834Z,17.20
2022-11-15T14:11:31.725Z,17.00
2022-11-15T14:14:08.486Z,16.90
2022-11-15T14:16:36.884Z,16.60
2022-11-15T14:19:05.910Z,16.40
2022-11-15T14:21:34.504Z,16.10
2022-11-15T14:24:22.031Z,15.90
2022-11-15T14:26:50.055Z,15.70
2022-11-15T14:29:28.115Z,15.50
2022-11-15T14:32:15.712Z,15.30
2022-11-15T14:34:43.519Z,15.30
2022-11-15T14:37:22.124Z,15.00
2022-11-15T14:39:49.702Z,14.80
2022-11-15T14:42:17.329Z,14.50
2022-11-15T14:44:46.176Z,14.20
2022-11-15T14:47:14.370Z,13.90
2022-11-15T14:49:41.746Z,13.80
2022-11-15T14:52:20.289Z,13.60
2022-11-15T14:54:47.583Z,13.40
2022-11-15T14:57:14.732Z,13.20
2022-11-15T14:59:41.898Z,13.00
2022-11-15T15:02:17.886Z,12.80
2022-11-15T15:04:45.084Z,12.70
2022-11-15T15:07:12.427Z,12.60
2022-11-15T15:09:40.094Z,12.40
2022-11-15T15:12:19.340Z,12.20
2022-11-15T15:14:47.981Z,12.10
2022-11-15T15:17:15.533Z,11.90
2022-11-15T15:19:43.307Z,11.70
2022-11-15T15:22:15.243Z,11.50
2022-11-15T15:24:43.469Z,11.30
2022-11-15T15:27:11.155Z,11.10
2022-11-15T15:29:39.083Z,11.00
2022-11-15T15:32:06.930Z,10.90
2022-11-15T15:34:34.846Z,10.90
2022-11-15T15:37:25.686Z,10.80
2022-11-15T15:39:57.413Z,10.70
2022-11-15T15:42:24.802Z,10.80
2022-11-15T15:44:52.334Z,10.70
2022-11-15T15:47:24.078Z,10.60
2022-11-15T15:49:51.703Z,10.50
2022-11-15T15:52:19.122Z,10.50
2022-11-15T15:54:46.240Z,10.50
2022-11-15T15:57:15.068Z,10.60
2022-11-15T15:59:42.963Z,10.60
2022-11-15T16:02:15.887Z,10.70
2022-11-15T16:04:43.761Z,10.70
2022-11-15T16:07:23.426Z,10.70
2022-11-15T16:10:03.947Z,10.70
2022-11-15T16:12:34.700Z,10.70
2022-11-15T16:15:03.233Z,10.70
2022-11-15T16:17:40.873Z,10.70
2022-11-15T16:20:20.219Z,10.60
2022-11-15T16:22:47.528Z,10.50
2022-11-15T16:25:14.816Z,10.40
2022-11-15T16:27:45.750Z,10.30
2022-11-15T16:30:17.881Z,10.30
2022-11-15T16:32:45.190Z,10.30
2022-11-15T16:35:13.795Z,10.20
2022-11-15T16:37:41.569Z,10.20
2022-11-15T16:40:26.992Z,10.10
2022-11-15T16:42:56.257Z,10.10
2022-11-15T16:45:24.243Z,10.10
2022-11-15T16:47:54.285Z,10.10
2022-11-15T16:50:25.901Z,9.90
2022-11-15T16:52:55.159Z,9.80
2022-11-15T16:55:24.981Z,9.60
2022-11-15T16:57:52.657Z,9.60
2022-11-15T17:00:20.629Z,9.60
2022-11-15T17:02:49.973Z,9.60
2022-11-15T17:05:20.429Z,9.60
2022-11-15T17:07:54.741Z,9.60
2022-11-15T17:10:23.349Z,9.40
2022-11-15T17:12:50.964Z,9.20
2022-11-15T17:15:18.943Z,9.10
2022-11-15T17:17:54.563Z,9.00
2022-11-15T17:20:24.229Z,9.00
2022-11-15T17:22:52.627Z,9.00
2022-11-15T17:25:20.506Z,9.00
2022-11-15T17:27:48.058Z,8.90
2022-11-15T17:30:16.509Z,8.80
2022-11-15T17:32:43.721Z,8.80
2022-11-15T17:35:15.505Z,8.80
2022-11-15T17:37:43.814Z,8.80
2022-11-15T17:40:11.417Z,8.90
2022-11-15T17:42:41.248Z,9.00
2022-11-15T17:45:10.881Z,9.10
2022-11-15T17:47:38.444Z,9.20
2022-11-15T17:50:06.074Z,9.20
2022-11-15T17:52:33.278Z,9.20
2022-11-15T17:55:00.462Z,9.10
2022-11-15T17:57:27.585Z,8.90
2022-11-15T17:59:54.823Z,8.80
2022-11-15T18:02:22.193Z,8.70
2022-11-15T18:04:49.495Z,8.50
2022-11-15T18:07:16.714Z,8.40
2022-11-15T18:09:44.297Z,8.30
2022-11-15T18:12:12.304Z,8.20
2022-11-15T18:14:39.588Z,8.10
2022-11-15T18:17:06.804Z,8.10
2022-11-15T18:19:34.600Z,8.10
2022-11-15T18:22:04.262Z,8.10
2022-11-15T18:24:35.061Z,8.00
2022-11-15T18:27:04.484Z,8.00
2022-11-15T18:29:34.423Z,7.90
2022-11-15T18:32:04.896Z,7.80
2022-11-15T18:34:33.645Z,7.80
2022-11-15T18:37:02.647Z,7.80
2022-11-15T18:39:31.095Z,7.70
2022-11-15T18:41:58.951Z,7.60
2022-11-15T18:44:27.815Z,7.70
2022-11-15T18:46:55.073Z,7.70
2022-11-15T18:49:22.535Z,7.80
2022-11-15T18:51:49.750Z,7.80
2022-11-15T18:54:17.283Z,7.80
2022-11-15T18:56:45.774Z,7.70
2022-11-15T18:59:13.822Z,7.70
2022-11-15T19:01:43.781Z,7.60
2022-11-15T19:04:13.318Z,7.70
2022-11-15T19:06:42.925Z,7.70
2022-11-15T19:09:12.622Z,7.70
2022-11-15T19:11:40.345Z,7.70
2022-11-15T19:14:10.056Z,7.70
2022-11-15T19:16:44.652Z,7.80
2022-11-15T19:19:15.000Z,7.70
2022-11-15T19:21:42.549Z,7.70
2022-11-15T19:24:12.967Z,7.60
2022-11-15T19:26:40.687Z,7.70
2022-11-15T19:29:12.090Z,7.60
2022-11-15T19:31:39.467Z,7.60
2022-11-15T19:34:06.967Z,7.60
2022-11-15T19:36:40.727Z,7.70
2022-11-15T19:39:12.568Z,7.70
2022-11-15T19:41:42.268Z,7.90
2022-11-15T19:44:10.286Z,8.00
2022-11-15T19:46:38.145Z,8.10
2022-11-15T19:49:07.854Z,8.20
2022-11-15T19:52:00.247Z,8.30
2022-11-15T19:54:27.741Z,8.40
2022-11-15T19:56:54.932Z,8.40
2022-11-15T19:59:22.325Z,8.50
2022-11-15T20:01:49.608Z,8.50
2022-11-15T20:04:17.028Z,8.50
2022-11-15T20:06:44.465Z,8.60
2022-11-15T20:09:13.636Z,8.60
2022-11-15T20:11:41.711Z,8.60
2022-11-15T20:14:11.437Z,8.60
2022-11-15T20:16:39.181Z,8.70
2022-11-15T20:19:08.629Z,8.70
2022-11-15T20:21:36.314Z,8.80
2022-11-15T20:24:04.525Z,8.90
2022-11-15T20:26:32.074Z,8.90
2022-11-15T20:29:01.212Z,8.90
2022-11-15T20:31:29.669Z,8.90
2022-11-15T20:33:57.157Z,8.90
2022-11-15T20:36:24.878Z,9.00
2022-11-15T20:38:59.391Z,9.00
2022-11-15T20:41:27.376Z,9.00
2022-11-15T20:43:55.009Z,9.10
2022-11-15T20:46:22.542Z,9.10
2022-11-15T20:48:49.742Z,9.20
2022-11-15T20:51:18.612Z,9.30
2022-11-15T20:53:46.988Z,9.30
2022-11-15T20:56:17.975Z,9.30
2022-11-15T20:58:49.999Z,9.30
2022-11-15T21:01:23.517Z,9.40
2022-11-15T21:03:55.569Z,9.40
2022-11-15T21:06:24.124Z,9.40
2022-11-15T21:09:11.653Z,9.50
2022-11-15T21:11:58.188Z,9.50
2022-11-15T21:14:25.381Z,9.60
2022-11-15T21:16:52.659Z,9.60
2022-11-15T21:19:25.691Z,9.70
2022-11-15T21:21:55.553Z,9.70
2022-11-15T21:24:24.546Z,9.70
2022-11-15T21:26:52.512Z,9.60
2022-11-15T21:29:19.790Z,9.60
2022-11-15T21:31:48.380Z,9.60
2022-11-15T21:34:17.070Z,9.60
2022-11-15T21:36:44.282Z,9.50
2022-11-15T21:39:11.646Z,9.60
2022-11-15T21:41:38.874Z,9.60
2022-11-15T21:44:06.788Z,9.70
2022-11-15T21:46:33.969Z,9.70
2022-11-15T21:49:01.100Z,9.60
2022-11-15T21:51:28.318Z,9.60
2022-11-15T21:53:56.263Z,9.50
2022-11-15T21:56:25.499Z,9.50
2022-11-15T21:58:53.870Z,9.40
2022-11-15T22:01:40.855Z,9.40
2022-11-15T22:04:08.239Z,9.40
2022-11-15T22:06:36.301Z,9.40
2022-11-15T22:09:05.222Z,9.30
2022-11-15T22:11:33.367Z,9.30
2022-11-15T22:14:00.812Z,9.30
2022-11-15T22:16:28.105Z,9.30
2022-11-15T22:18:55.773Z,9.30
2022-11-15T22:21:22.958Z,9.30
2022-11-15T22:23:50.177Z,9.30
2022-11-15T22:26:23.252Z,9.30
2022-11-15T22:28:52.239Z,9.30
2022-11-15T22:31:19.679Z,9.20
2022-11-15T22:33:47.194Z,9.20
2022-11-15T22:36:14.558Z,9.20
2022-11-15T22:38:41.798Z,9.20
2022-11-15T22:41:08.959Z,9.20
2022-11-15T22:43:36.250Z,9.20
2022-11-15T22:46:04.665Z,9.30
2022-11-15T22:48:38.113Z,9.30
2022-11-15T22:51:06.675Z,9.30
2022-11-15T22:53:34.035Z,9.30
2022-11-15T22:56:02.981Z,9.30
2022-11-15T22:58:32.278Z,9.30
2022-11-15T23:01:02.002Z,9.30
2022-11-15T23:03:30.568Z,9.30
2022-11-15T23:06:02.469Z,9.30
2022-11-15T23:08:30.743Z,9.30
2022-11-15T23:11:21.047Z,9.30
2022-11-15T23:13:52.101Z,9.30
2022-11-15T23:16:23.409Z,9.30
2022-11-15T23:18:58.168Z,9.30
2022-11-15T23:21:50.754Z,9.20
2022-11-15T23:24:19.030Z,9.20
2022-11-15T23:26:48.322Z,9.10
2022-11-15T23:29:19.738Z,9.00
2022-11-15T23:32:05.940Z,8.90
2022-11-15T23:34:36.926Z,8.90
2022-11-15T23:37:05.237Z,8.80
2022-11-15T23:39:32.656Z,8.70
2022-11-15T23:42:02.095Z,8.60
2022-11-15T23:44:33.202Z,8.70
2022-11-15T23:47:00.400Z,8.60
2022-11-15T23:49:27.832Z,8.50
2022-11-15T23:51:55.255Z,8.40
2022-11-15T23:54:22.412Z,8.40
2022-11-15T23:56:49.554Z,8.40
2022-11-15T23:59:16.795Z,8.40
